sensor_id;sensor_type;location;lat;lon;timestamp;pressure;altitude;pressure_sealevel;temperature;humidity
7337;BME280;54510;42.016;23.098;2023-07-24T00:02:15;-21832.41;;;25.56;40.78
7337;BME280;54510;42.016;23.098;2023-07-24T00:04:40;-21832.28;;;25.56;40.63
7337;BME280;54510;42.016;23.098;2023-07-24T00:07:06;-21829.81;;;25.47;41.01
7337;BME280;54510;42.016;23.098;2023-07-24T00:09:31;-21826.56;;;25.35;41.01
7337;BME280;54510;42.016;23.098;2023-07-24T00:11:57;-21823.84;;;25.25;40.93
7337;BME280;54510;42.016;23.098;2023-07-24T00:14:22;-21815.81;;;24.95;41.93
7337;BME280;54510;42.016;23.098;2023-07-24T00:16:47;-21806.13;;;24.59;41.89
7337;BME280;54510;42.016;23.098;2023-07-24T00:19:14;-21806.94;;;24.62;42.64
7337;BME280;54510;42.016;23.098;2023-07-24T00:21:39;-21806.00;;;24.58;42.62
7337;BME280;54510;42.016;23.098;2023-07-24T00:24:05;-21803.81;;;24.50;42.75
7337;BME280;54510;42.016;23.098;2023-07-24T00:26:31;-21798.63;;;24.31;43.51
7337;BME280;54510;42.016;23.098;2023-07-24T00:28:56;-21799.47;;;24.34;43.30
7337;BME280;54510;42.016;23.098;2023-07-24T00:31:22;-21794.94;;;24.17;43.82
7337;BME280;54510;42.016;23.098;2023-07-24T00:33:47;-21786.63;;;23.86;44.12
7337;BME280;54510;42.016;23.098;2023-07-24T00:36:13;-21790.19;;;23.99;44.25
7337;BME280;54510;42.016;23.098;2023-07-24T00:38:39;-21790.47;;;24.00;44.48
7337;BME280;54510;42.016;23.098;2023-07-24T00:41:04;-21787.44;;;23.89;44.13
7337;BME280;54510;42.016;23.098;2023-07-24T00:43:29;-21788.81;;;23.94;44.12
7337;BME280;54510;42.016;23.098;2023-07-24T00:45:56;-21788.69;;;23.94;44.22
7337;BME280;54510;42.016;23.098;2023-07-24T00:48:22;-21787.19;;;23.88;44.97
7337;BME280;54510;42.016;23.098;2023-07-24T00:50:48;-21787.59;;;23.90;45.13
7337;BME280;54510;42.016;23.098;2023-07-24T00:53:15;-21783.38;;;23.74;45.11
7337;BME280;54510;42.016;23.098;2023-07-24T00:55:42;-21787.59;;;23.90;45.07
7337;BME280;54510;42.016;23.098;2023-07-24T00:58:10;-21797.00;;;24.25;44.13
7337;BME280;54510;42.016;23.098;2023-07-24T01:00:37;-21802.31;;;24.45;43.82
7337;BME280;54510;42.016;23.098;2023-07-24T01:03:03;-21801.78;;;24.43;43.37
7337;BME280;54510;42.016;23.098;2023-07-24T01:05:29;-21798.78;;;24.31;43.46
7337;BME280;54510;42.016;23.098;2023-07-24T01:07:55;-21797.97;;;24.28;43.45
7337;BME280;54510;42.016;23.098;2023-07-24T01:10:20;-21803.00;;;24.47;43.32
7337;BME280;54510;42.016;23.098;2023-07-24T01:13:09;-21806.13;;;24.59;43.92
7337;BME280;54510;42.016;23.098;2023-07-24T01:15:42;-21807.50;;;24.64;44.45
7337;BME280;54510;42.016;23.098;2023-07-24T01:18:10;-21807.91;;;24.65;44.22
7337;BME280;54510;42.016;23.098;2023-07-24T01:20:38;-21807.38;;;24.63;44.45
7337;BME280;54510;42.016;23.098;2023-07-24T01:23:19;-21806.53;;;24.60;43.93
7337;BME280;54510;42.016;23.098;2023-07-24T01:25:57;-21802.31;;;24.45;44.19
7337;BME280;54510;42.016;23.098;2023-07-24T01:28:23;-21803.81;;;24.50;43.67
7337;BME280;54510;42.016;23.098;2023-07-24T01:30:49;-21805.19;;;24.55;43.38
7337;BME280;54510;42.016;23.098;2023-07-24T01:33:14;-21802.88;;;24.47;43.52
7337;BME280;54510;42.016;23.098;2023-07-24T01:35:42;-21799.47;;;24.34;43.69
7337;BME280;54510;42.016;23.098;2023-07-24T01:38:10;-21799.31;;;24.33;43.68
7337;BME280;54510;42.016;23.098;2023-07-24T01:40:38;-21798.38;;;24.30;44.51
7337;BME280;54510;42.016;23.098;2023-07-24T01:43:04;-21795.50;;;24.19;44.80
7337;BME280;54510;42.016;23.098;2023-07-24T01:45:30;-21793.88;;;24.13;45.41
7337;BME280;54510;42.016;23.098;2023-07-24T01:47:55;-21795.91;;;24.21;45.67
7337;BME280;54510;42.016;23.098;2023-07-24T01:50:21;-21790.88;;;24.02;45.48
7337;BME280;54510;42.016;23.098;2023-07-24T01:52:46;-21783.50;;;23.75;45.21
7337;BME280;54510;42.016;23.098;2023-07-24T01:55:11;-21779.81;;;23.61;45.75
7337;BME280;54510;42.016;23.098;2023-07-24T01:57:37;-21779.69;;;23.60;45.40
7337;BME280;54510;42.016;23.098;2023-07-24T02:00:02;-21780.38;;;23.63;45.31
7337;BME280;54510;42.016;23.098;2023-07-24T02:02:28;-21777.78;;;23.53;45.46
7337;BME280;54510;42.016;23.098;2023-07-24T02:04:53;-21778.44;;;23.56;45.72
7337;BME280;54510;42.016;23.098;2023-07-24T02:07:19;-21773.81;;;23.39;46.09
7337;BME280;54510;42.016;23.098;2023-07-24T02:09:44;-21768.91;;;23.20;46.49
7337;BME280;54510;42.016;23.098;2023-07-24T02:12:10;-21765.06;;;23.06;47.13
7337;BME280;54510;42.016;23.098;2023-07-24T02:14:35;-21763.97;;;23.02;47.24
7337;BME280;54510;42.016;23.098;2023-07-24T02:17:01;-21763.44;;;23.00;46.82
7337;BME280;54510;42.016;23.098;2023-07-24T02:19:26;-21752.22;;;22.59;47.42
7337;BME280;54510;42.016;23.098;2023-07-24T02:21:51;-21754.13;;;22.66;47.19
7337;BME280;54510;42.016;23.098;2023-07-24T02:24:17;-21756.19;;;22.73;47.24
7337;BME280;54510;42.016;23.098;2023-07-24T02:26:42;-21755.78;;;22.72;46.99
7337;BME280;54510;42.016;23.098;2023-07-24T02:29:07;-21762.22;;;22.96;46.76
7337;BME280;54510;42.016;23.098;2023-07-24T02:31:33;-21761.53;;;22.93;46.63
7337;BME280;54510;42.016;23.098;2023-07-24T02:33:59;-21764.25;;;23.03;46.46
7337;BME280;54510;42.016;23.098;2023-07-24T02:36:24;-21757.97;;;22.80;46.30
7337;BME280;54510;42.016;23.098;2023-07-24T02:38:50;-21759.34;;;22.85;46.81
7337;BME280;54510;42.016;23.098;2023-07-24T02:41:15;-21763.84;;;23.02;46.41
7337;BME280;54510;42.016;23.098;2023-07-24T02:43:41;-21764.81;;;23.05;46.56
7337;BME280;54510;42.016;23.098;2023-07-24T02:46:06;-21764.38;;;23.04;46.46
7337;BME280;54510;42.016;23.098;2023-07-24T02:48:31;-21762.47;;;22.97;47.22
7337;BME280;54510;42.016;23.098;2023-07-24T02:50:57;-21759.19;;;22.84;47.69
7337;BME280;54510;42.016;23.098;2023-07-24T02:53:22;-21763.28;;;23.00;47.43
7337;BME280;54510;42.016;23.098;2023-07-24T02:55:47;-21760.44;;;22.89;47.22
7337;BME280;54510;42.016;23.098;2023-07-24T02:58:13;-21752.50;;;22.60;47.16
7337;BME280;54510;42.016;23.098;2023-07-24T03:00:39;-21757.28;;;22.77;47.16
7337;BME280;54510;42.016;23.098;2023-07-24T03:03:05;-21760.16;;;22.88;47.37
7337;BME280;54510;42.016;23.098;2023-07-24T03:05:31;-21759.75;;;22.87;47.20
7337;BME280;54510;42.016;23.098;2023-07-24T03:07:56;-21763.44;;;23.00;47.33
7337;BME280;54510;42.016;23.098;2023-07-24T03:10:23;-21765.34;;;23.07;46.76
7337;BME280;54510;42.016;23.098;2023-07-24T03:12:48;-21766.44;;;23.11;46.81
7337;BME280;54510;42.016;23.098;2023-07-24T03:15:13;-21763.84;;;23.02;47.38
7337;BME280;54510;42.016;23.098;2023-07-24T03:17:39;-21762.34;;;22.96;47.49
7337;BME280;54510;42.016;23.098;2023-07-24T03:20:09;-21761.13;;;22.92;48.23
7337;BME280;54510;42.016;23.098;2023-07-24T03:22:34;-21759.88;;;22.87;48.45
7337;BME280;54510;42.016;23.098;2023-07-24T03:25:00;-21760.44;;;22.89;47.98
7337;BME280;54510;42.016;23.098;2023-07-24T03:27:25;-21761.78;;;22.94;47.90
7337;BME280;54510;42.016;23.098;2023-07-24T03:29:50;-21762.06;;;22.95;48.78
7337;BME280;54510;42.016;23.098;2023-07-24T03:32:16;-21761.13;;;22.92;49.16
7337;BME280;54510;42.016;23.098;2023-07-24T03:34:41;-21763.97;;;23.02;48.62
7337;BME280;54510;42.016;23.098;2023-07-24T03:37:06;-21762.47;;;22.97;48.70
7337;BME280;54510;42.016;23.098;2023-07-24T03:39:32;-21762.06;;;22.95;48.51
7337;BME280;54510;42.016;23.098;2023-07-24T03:41:57;-21760.97;;;22.91;49.12
7337;BME280;54510;42.016;23.098;2023-07-24T03:44:23;-21760.28;;;22.89;49.05
7337;BME280;54510;42.016;23.098;2023-07-24T03:46:48;-21760.16;;;22.88;49.07
7337;BME280;54510;42.016;23.098;2023-07-24T03:49:13;-21760.97;;;22.91;48.74
7337;BME280;54510;42.016;23.098;2023-07-24T03:51:39;-21756.06;;;22.73;48.84
7337;BME280;54510;42.016;23.098;2023-07-24T03:54:04;-21757.44;;;22.78;48.94
7337;BME280;54510;42.016;23.098;2023-07-24T03:56:30;-21765.06;;;23.06;48.72
7337;BME280;54510;42.016;23.098;2023-07-24T03:58:55;-21769.31;;;23.22;48.70
7337;BME280;54510;42.016;23.098;2023-07-24T04:01:20;-21769.03;;;23.21;48.63
7337;BME280;54510;42.016;23.098;2023-07-24T04:03:46;-21769.31;;;23.22;48.68
7337;BME280;54510;42.016;23.098;2023-07-24T04:06:11;-21770.81;;;23.28;48.81
7337;BME280;54510;42.016;23.098;2023-07-24T04:08:37;-21773.00;;;23.36;48.68
7337;BME280;54510;42.016;23.098;2023-07-24T04:11:02;-21773.66;;;23.38;48.94
7337;BME280;54510;42.016;23.098;2023-07-24T04:13:29;-21774.09;;;23.40;48.97
7337;BME280;54510;42.016;23.098;2023-07-24T04:15:55;-21774.34;;;23.41;49.00
7337;BME280;54510;42.016;23.098;2023-07-24T04:18:22;-21772.03;;;23.32;49.37
7337;BME280;54510;42.016;23.098;2023-07-24T04:20:47;-21765.34;;;23.07;49.78
7337;BME280;54510;42.016;23.098;2023-07-24T04:23:13;-21773.25;;;23.37;49.08
7337;BME280;54510;42.016;23.098;2023-07-24T04:25:38;-21771.22;;;23.29;49.42
7337;BME280;54510;42.016;23.098;2023-07-24T04:28:04;-21773.81;;;23.39;49.29
7337;BME280;54510;42.016;23.098;2023-07-24T04:30:29;-21773.53;;;23.38;49.40
7337;BME280;54510;42.016;23.098;2023-07-24T04:32:54;-21775.84;;;23.46;49.54
7337;BME280;54510;42.016;23.098;2023-07-24T04:35:20;-21779.81;;;23.61;49.23
7337;BME280;54510;42.016;23.098;2023-07-24T04:37:45;-21779.13;;;23.58;49.18
7337;BME280;54510;42.016;23.098;2023-07-24T04:40:11;-21781.59;;;23.68;49.02
7337;BME280;54510;42.016;23.098;2023-07-24T04:42:37;-21785.53;;;23.82;48.93
7337;BME280;54510;42.016;23.098;2023-07-24T04:45:03;-21785.13;;;23.81;48.70
7337;BME280;54510;42.016;23.098;2023-07-24T04:47:28;-21787.88;;;23.91;48.32
7337;BME280;54510;42.016;23.098;2023-07-24T04:49:53;-21787.06;;;23.88;48.50
7337;BME280;54510;42.016;23.098;2023-07-24T04:52:20;-21788.00;;;23.91;48.45
7337;BME280;54510;42.016;23.098;2023-07-24T04:54:45;-21789.09;;;23.95;48.31
7337;BME280;54510;42.016;23.098;2023-07-24T04:57:11;-21786.22;;;23.85;48.32
7337;BME280;54510;42.016;23.098;2023-07-24T04:59:36;-21785.53;;;23.82;48.38
7337;BME280;54510;42.016;23.098;2023-07-24T05:02:01;-21788.69;;;23.94;48.00
7337;BME280;54510;42.016;23.098;2023-07-24T05:04:27;-21795.38;;;24.19;48.02
7337;BME280;54510;42.016;23.098;2023-07-24T05:06:52;-21794.81;;;24.17;47.76
7337;BME280;54510;42.016;23.098;2023-07-24T05:09:18;-21798.09;;;24.29;47.51
7337;BME280;54510;42.016;23.098;2023-07-24T05:11:43;-21800.28;;;24.37;47.34
7337;BME280;54510;42.016;23.098;2023-07-24T05:14:10;-21799.31;;;24.33;47.16
7337;BME280;54510;42.016;23.098;2023-07-24T05:16:35;-21805.31;;;24.56;46.43
7337;BME280;54510;42.016;23.098;2023-07-24T05:19:01;-21807.75;;;24.65;46.04
7337;BME280;54510;42.016;23.098;2023-07-24T05:21:26;-21810.63;;;24.75;45.67
7337;BME280;54510;42.016;23.098;2023-07-24T05:23:51;-21811.44;;;24.78;45.63
7337;BME280;54510;42.016;23.098;2023-07-24T05:26:17;-21813.34;;;24.86;45.47
7337;BME280;54510;42.016;23.098;2023-07-24T05:28:42;-21816.22;;;24.96;45.50
7337;BME280;54510;42.016;23.098;2023-07-24T05:31:08;-21818.38;;;25.04;45.41
7337;BME280;54510;42.016;23.098;2023-07-24T05:33:33;-21820.72;;;25.13;45.25
7337;BME280;54510;42.016;23.098;2023-07-24T05:36:03;-21822.06;;;25.18;44.88
7337;BME280;54510;42.016;23.098;2023-07-24T05:38:29;-21821.53;;;25.16;44.66
7337;BME280;54510;42.016;23.098;2023-07-24T05:41:02;-21825.75;;;25.32;44.78
7337;BME280;54510;42.016;23.098;2023-07-24T05:43:29;-21826.28;;;25.34;44.63
7337;BME280;54510;42.016;23.098;2023-07-24T05:45:55;-21830.78;;;25.50;44.32
7337;BME280;54510;42.016;23.098;2023-07-24T05:48:22;-21835.69;;;25.69;43.88
7337;BME280;54510;42.016;23.098;2023-07-24T05:50:47;-21834.72;;;25.65;44.17
7337;BME280;54510;42.016;23.098;2023-07-24T05:53:13;-21833.50;;;25.61;44.08
7337;BME280;54510;42.016;23.098;2023-07-24T05:55:39;-21834.88;;;25.66;44.14
7337;BME280;54510;42.016;23.098;2023-07-24T05:58:04;-21839.22;;;25.82;43.74
7337;BME280;54510;42.016;23.098;2023-07-24T06:00:29;-21841.94;;;25.92;43.14
7337;BME280;54510;42.016;23.098;2023-07-24T06:02:55;-21842.88;;;25.95;43.31
7337;BME280;54510;42.016;23.098;2023-07-24T06:05:20;-21844.66;;;26.02;43.18
7337;BME280;54510;42.016;23.098;2023-07-24T06:07:48;-21847.38;;;26.12;42.74
7337;BME280;54510;42.016;23.098;2023-07-24T06:10:14;-21847.91;;;26.14;43.14
7337;BME280;54510;42.016;23.098;2023-07-24T06:12:39;-21850.63;;;26.24;42.75
7337;BME280;54510;42.016;23.098;2023-07-24T06:15:05;-21846.69;;;26.10;42.62
7337;BME280;54510;42.016;23.098;2023-07-24T06:17:31;-21848.47;;;26.16;43.14
7337;BME280;54510;42.016;23.098;2023-07-24T06:19:57;-21854.16;;;26.38;42.91
7337;BME280;54510;42.016;23.098;2023-07-24T06:22:23;-21861.38;;;26.64;42.59
7337;BME280;54510;42.016;23.098;2023-07-24T06:24:48;-21864.75;;;26.77;42.31
7337;BME280;54510;42.016;23.098;2023-07-24T06:27:14;-21868.56;;;26.91;42.01
7337;BME280;54510;42.016;23.098;2023-07-24T06:29:40;-21869.13;;;26.93;41.43
7337;BME280;54510;42.016;23.098;2023-07-24T06:32:05;-21851.03;;;26.26;42.22
7337;BME280;54510;42.016;23.098;2023-07-24T06:34:31;-21859.19;;;26.56;41.77
7337;BME280;54510;42.016;23.098;2023-07-24T06:36:57;-21861.38;;;26.64;42.21
7337;BME280;54510;42.016;23.098;2023-07-24T06:39:22;-21862.88;;;26.70;41.32
7337;BME280;54510;42.016;23.098;2023-07-24T06:41:48;-21865.84;;;26.81;41.24
7337;BME280;54510;42.016;23.098;2023-07-24T06:44:13;-21862.88;;;26.70;41.06
7337;BME280;54510;42.016;23.098;2023-07-24T06:46:39;-21864.91;;;26.78;41.46
7337;BME280;54510;42.016;23.098;2023-07-24T06:49:04;-21869.13;;;26.93;41.25
7337;BME280;54510;42.016;23.098;2023-07-24T06:51:30;-21869.13;;;26.93;41.24
7337;BME280;54510;42.016;23.098;2023-07-24T06:53:55;-21872.50;;;27.06;40.74
7337;BME280;54510;42.016;23.098;2023-07-24T06:56:20;-21878.63;;;27.29;40.58
7337;BME280;54510;42.016;23.098;2023-07-24T06:58:46;-21883.50;;;27.47;41.04
7337;BME280;54510;42.016;23.098;2023-07-24T07:01:11;-21885.13;;;27.53;40.45
7337;BME280;54510;42.016;23.098;2023-07-24T07:03:37;-21881.72;;;27.40;39.98
7337;BME280;54510;42.016;23.098;2023-07-24T07:06:02;-21887.84;;;27.63;40.10
7337;BME280;54510;42.016;23.098;2023-07-24T07:08:31;-21886.34;;;27.58;39.74
7337;BME280;54510;42.016;23.098;2023-07-24T07:10:57;-21888.78;;;27.67;39.17
7337;BME280;54510;42.016;23.098;2023-07-24T07:13:23;-21889.75;;;27.70;39.24
7337;BME280;54510;42.016;23.098;2023-07-24T07:15:48;-21892.72;;;27.81;38.93
7337;BME280;54510;42.016;23.098;2023-07-24T07:18:14;-21899.78;;;28.08;38.67
7337;BME280;54510;42.016;23.098;2023-07-24T07:20:45;-21907.34;;;28.36;38.05
7337;BME280;54510;42.016;23.098;2023-07-24T07:23:10;-21913.31;;;28.58;37.43
7337;BME280;54510;42.016;23.098;2023-07-24T07:25:36;-21911.81;;;28.53;36.93
7337;BME280;54510;42.016;23.098;2023-07-24T07:28:01;-21910.88;;;28.49;36.40
7337;BME280;54510;42.016;23.098;2023-07-24T07:30:26;-21911.44;;;28.51;37.04
7337;BME280;54510;42.016;23.098;2023-07-24T07:32:52;-21908.84;;;28.42;36.81
7337;BME280;54510;42.016;23.098;2023-07-24T07:35:17;-21912.22;;;28.54;37.07
7337;BME280;54510;42.016;23.098;2023-07-24T07:37:42;-21910.88;;;28.49;37.22
7337;BME280;54510;42.016;23.098;2023-07-24T07:40:09;-21906.53;;;28.33;36.74
7337;BME280;54510;42.016;23.098;2023-07-24T07:42:34;-21918.47;;;28.78;36.71
7337;BME280;54510;42.016;23.098;2023-07-24T07:44:59;-21920.50;;;28.85;36.17
7337;BME280;54510;42.016;23.098;2023-07-24T07:47:25;-21924.44;;;29.00;34.93
7337;BME280;54510;42.016;23.098;2023-07-24T07:49:50;-21929.97;;;29.21;35.41
7337;BME280;54510;42.016;23.098;2023-07-24T07:52:16;-21934.97;;;29.39;35.62
7337;BME280;54510;42.016;23.098;2023-07-24T07:54:48;-21933.22;;;29.33;35.00
7337;BME280;54510;42.016;23.098;2023-07-24T07:57:14;-21938.22;;;29.52;34.99
7337;BME280;54510;42.016;23.098;2023-07-24T07:59:40;-21942.00;;;29.66;34.90
7337;BME280;54510;42.016;23.098;2023-07-24T08:02:06;-21946.47;;;29.82;34.79
7337;BME280;54510;42.016;23.098;2023-07-24T08:04:31;-21952.00;;;30.03;34.29
7337;BME280;54510;42.016;23.098;2023-07-24T08:06:57;-21952.69;;;30.06;34.28
7337;BME280;54510;42.016;23.098;2023-07-24T08:09:23;-21953.91;;;30.10;33.89
7337;BME280;54510;42.016;23.098;2023-07-24T08:11:50;-21955.66;;;30.17;34.23
7337;BME280;54510;42.016;23.098;2023-07-24T08:14:16;-21955.25;;;30.15;33.38
7337;BME280;54510;42.016;23.098;2023-07-24T08:16:42;-21954.97;;;30.14;34.00
7337;BME280;54510;42.016;23.098;2023-07-24T08:19:07;-21957.16;;;30.22;33.90
7337;BME280;54510;42.016;23.098;2023-07-24T08:21:32;-21965.25;;;30.53;33.14
7337;BME280;54510;42.016;23.098;2023-07-24T08:23:58;-21970.66;;;30.73;33.55
7337;BME280;54510;42.016;23.098;2023-07-24T08:26:25;-21974.69;;;30.88;34.10
7337;BME280;54510;42.016;23.098;2023-07-24T08:28:51;-21974.56;;;30.88;34.13
7337;BME280;54510;42.016;23.098;2023-07-24T08:31:17;-21974.69;;;30.88;34.48
7337;BME280;54510;42.016;23.098;2023-07-24T08:33:42;-21973.88;;;30.85;34.61
7337;BME280;54510;42.016;23.098;2023-07-24T08:36:08;-21974.16;;;30.86;34.56
7337;BME280;54510;42.016;23.098;2023-07-24T08:38:34;-21975.78;;;30.92;33.95
7337;BME280;54510;42.016;23.098;2023-07-24T08:41:08;-21978.19;;;31.01;33.85
7337;BME280;54510;42.016;23.098;2023-07-24T08:43:35;-21981.03;;;31.12;32.98
7337;BME280;54510;42.016;23.098;2023-07-24T08:46:02;-21982.53;;;31.18;32.91
7337;BME280;54510;42.016;23.098;2023-07-24T08:48:38;-21986.03;;;31.31;34.10
7337;BME280;54510;42.016;23.098;2023-07-24T08:53:30;-21989.00;;;31.42;34.49
7337;BME280;54510;42.016;23.098;2023-07-24T08:55:58;-21990.47;;;31.48;33.18
7337;BME280;54510;42.016;23.098;2023-07-24T08:58:24;-21992.34;;;31.55;32.95
7337;BME280;54510;42.016;23.098;2023-07-24T09:00:50;-21987.63;;;31.37;34.00
7337;BME280;54510;42.016;23.098;2023-07-24T09:03:17;-21993.84;;;31.60;31.87
7337;BME280;54510;42.016;23.098;2023-07-24T09:05:44;-22003.13;;;31.95;31.19
7337;BME280;54510;42.016;23.098;2023-07-24T09:08:09;-22001.78;;;31.90;32.45
7337;BME280;54510;42.016;23.098;2023-07-24T09:10:35;-21998.56;;;31.78;31.50
7337;BME280;54510;42.016;23.098;2023-07-24T09:13:00;-22004.88;;;32.02;31.82
7337;BME280;54510;42.016;23.098;2023-07-24T09:15:29;-22008.13;;;32.14;32.20
7337;BME280;54510;42.016;23.098;2023-07-24T09:17:55;-22010.69;;;32.24;33.42
7337;BME280;54510;42.016;23.098;2023-07-24T09:20:20;-22009.59;;;32.20;32.67
7337;BME280;54510;42.016;23.098;2023-07-24T09:22:53;-22017.41;;;32.49;30.67
7337;BME280;54510;42.016;23.098;2023-07-24T09:25:18;-22026.69;;;32.84;28.31
7337;BME280;54510;42.016;23.098;2023-07-24T09:27:44;-22029.66;;;32.95;27.29
7337;BME280;54510;42.016;23.098;2023-07-24T09:30:13;-22031.41;;;33.02;29.27
7337;BME280;54510;42.016;23.098;2023-07-24T09:32:52;-22037.19;;;33.23;27.11
7337;BME280;54510;42.016;23.098;2023-07-24T09:35:18;-22036.50;;;33.21;29.76
7337;BME280;54510;42.016;23.098;2023-07-24T09:37:45;-22040.13;;;33.35;27.65
7337;BME280;54510;42.016;23.098;2023-07-24T09:40:12;-22041.06;;;33.38;28.28
7337;BME280;54510;42.016;23.098;2023-07-24T09:42:38;-22044.44;;;33.51;30.00
7337;BME280;54510;42.016;23.098;2023-07-24T09:45:05;-22042.44;;;33.43;27.73
7337;BME280;54510;42.016;23.098;2023-07-24T09:47:31;-22035.16;;;33.16;27.77
7337;BME280;54510;42.016;23.098;2023-07-24T09:49:57;-22046.06;;;33.57;28.16
7337;BME280;54510;42.016;23.098;2023-07-24T09:52:24;-22045.91;;;33.56;27.74
7337;BME280;54510;42.016;23.098;2023-07-24T09:57:28;-22041.47;;;33.40;29.22
7337;BME280;54510;42.016;23.098;2023-07-24T09:59:54;-22042.03;;;33.42;28.43
7337;BME280;54510;42.016;23.098;2023-07-24T10:02:21;-22044.31;;;33.50;27.23
7337;BME280;54510;42.016;23.098;2023-07-24T10:04:48;-22048.47;;;33.66;27.33
7337;BME280;54510;42.016;23.098;2023-07-24T10:07:14;-22060.69;;;34.12;27.42
7337;BME280;54510;42.016;23.098;2023-07-24T10:09:42;-22065.13;;;34.29;27.59
7337;BME280;54510;42.016;23.098;2023-07-24T10:12:09;-22068.59;;;34.42;27.52
7337;BME280;54510;42.016;23.098;2023-07-24T10:14:35;-22071.81;;;34.54;28.72
7337;BME280;54510;42.016;23.098;2023-07-24T10:17:01;-22073.97;;;34.62;27.55
7337;BME280;54510;42.016;23.098;2023-07-24T10:19:36;-22072.09;;;34.55;26.90
7337;BME280;54510;42.016;23.098;2023-07-24T10:22:02;-22080.41;;;34.86;27.06
7337;BME280;54510;42.016;23.098;2023-07-24T10:24:32;-22080.66;;;34.87;27.18
7337;BME280;54510;42.016;23.098;2023-07-24T10:26:58;-22083.09;;;34.97;26.61
7337;BME280;54510;42.016;23.098;2023-07-24T10:29:24;-22085.75;;;35.07;26.74
7337;BME280;54510;42.016;23.098;2023-07-24T10:31:54;-22081.75;;;34.92;26.73
7337;BME280;54510;42.016;23.098;2023-07-24T10:34:20;-22088.03;;;35.15;26.34
7337;BME280;54510;42.016;23.098;2023-07-24T10:36:46;-22086.03;;;35.08;26.98
7337;BME280;54510;42.016;23.098;2023-07-24T10:39:15;-22073.56;;;34.61;28.73
7337;BME280;54510;42.016;23.098;2023-07-24T10:41:42;-22089.25;;;35.20;27.08
7337;BME280;54510;42.016;23.098;2023-07-24T10:44:09;-22098.22;;;35.54;26.18
7337;BME280;54510;42.016;23.098;2023-07-24T10:46:41;-22110.13;;;35.99;25.39
7337;BME280;54510;42.016;23.098;2023-07-24T10:49:08;-22104.25;;;35.77;25.59
7337;BME280;54510;42.016;23.098;2023-07-24T10:51:34;-22110.13;;;35.99;25.33
7337;BME280;54510;42.016;23.098;2023-07-24T10:54:03;-22114.13;;;36.14;25.48
7337;BME280;54510;42.016;23.098;2023-07-24T10:56:29;-22110.94;;;36.02;25.09
7337;BME280;54510;42.016;23.098;2023-07-24T10:58:54;-22112.25;;;36.07;25.50
7337;BME280;54510;42.016;23.098;2023-07-24T11:01:20;-22109.72;;;35.97;25.96
7337;BME280;54510;42.016;23.098;2023-07-24T11:03:46;-22110.94;;;36.02;25.90
7337;BME280;54510;42.016;23.098;2023-07-24T11:06:16;-22114.69;;;36.16;25.59
7337;BME280;54510;42.016;23.098;2023-07-24T11:08:50;-22116.16;;;36.22;25.27
7337;BME280;54510;42.016;23.098;2023-07-24T11:11:15;-22117.47;;;36.27;25.10
7337;BME280;54510;42.016;23.098;2023-07-24T11:13:41;-22116.69;;;36.24;25.35
7337;BME280;54510;42.016;23.098;2023-07-24T11:16:07;-22118.56;;;36.31;25.38
7337;BME280;54510;42.016;23.098;2023-07-24T11:18:44;-22123.50;;;36.50;25.39
7337;BME280;54510;42.016;23.098;2023-07-24T11:21:12;-22124.56;;;36.54;24.76
7337;BME280;54510;42.016;23.098;2023-07-24T11:23:37;-22131.78;;;36.81;24.50
7337;BME280;54510;42.016;23.098;2023-07-24T11:26:04;-22129.50;;;36.72;24.64
7337;BME280;54510;42.016;23.098;2023-07-24T11:28:39;-22140.06;;;37.12;24.17
7337;BME280;54510;42.016;23.098;2023-07-24T11:31:05;-22145.28;;;37.32;23.92
7337;BME280;54510;42.016;23.098;2023-07-24T11:33:31;-22152.63;;;37.60;23.69
7337;BME280;54510;42.016;23.098;2023-07-24T11:35:57;-22154.22;;;37.66;23.76
7337;BME280;54510;42.016;23.098;2023-07-24T11:38:22;-22147.25;;;37.40;23.31
7337;BME280;54510;42.016;23.098;2023-07-24T11:40:49;-22149.13;;;37.47;23.57
7337;BME280;54510;42.016;23.098;2023-07-24T11:43:20;-22150.75;;;37.53;22.48
7337;BME280;54510;42.016;23.098;2023-07-24T11:45:46;-22148.59;;;37.45;23.04
7337;BME280;54510;42.016;23.098;2023-07-24T11:48:18;-22156.59;;;37.75;23.09
7337;BME280;54510;42.016;23.098;2023-07-24T11:50:47;-22161.53;;;37.94;22.59
7337;BME280;54510;42.016;23.098;2023-07-24T11:53:25;-22163.81;;;38.03;21.54
7337;BME280;54510;42.016;23.098;2023-07-24T11:55:52;-22165.53;;;38.09;22.29
7337;BME280;54510;42.016;23.098;2023-07-24T11:58:18;-22164.34;;;38.05;21.90
7337;BME280;54510;42.016;23.098;2023-07-24T12:00:45;-22178.31;;;38.58;21.34
7337;BME280;54510;42.016;23.098;2023-07-24T12:03:11;-22181.38;;;38.69;21.27
7337;BME280;54510;42.016;23.098;2023-07-24T12:05:40;-22182.47;;;38.73;21.72
7337;BME280;54510;42.016;23.098;2023-07-24T12:08:07;-22184.44;;;38.81;22.04
7337;BME280;54510;42.016;23.098;2023-07-24T12:10:38;-22191.78;;;39.09;21.26
7337;BME280;54510;42.016;23.098;2023-07-24T12:13:04;-22196.16;;;39.26;21.13
7337;BME280;54510;42.016;23.098;2023-07-24T12:15:30;-22196.44;;;39.27;20.96
7337;BME280;54510;42.016;23.098;2023-07-24T12:17:56;-22193.63;;;39.16;20.51
7337;BME280;54510;42.016;23.098;2023-07-24T12:20:23;-22190.19;;;39.03;20.75
7337;BME280;54510;42.016;23.098;2023-07-24T12:22:48;-22192.44;;;39.11;20.86
7337;BME280;54510;42.016;23.098;2023-07-24T12:25:14;-22195.88;;;39.25;20.84
7337;BME280;54510;42.016;23.098;2023-07-24T12:27:41;-22190.72;;;39.05;20.90
7337;BME280;54510;42.016;23.098;2023-07-24T12:30:07;-22191.78;;;39.09;20.90
7337;BME280;54510;42.016;23.098;2023-07-24T12:32:33;-22183.00;;;38.76;21.44
7337;BME280;54510;42.016;23.098;2023-07-24T12:34:58;-22190.44;;;39.04;20.20
7337;BME280;54510;42.016;23.098;2023-07-24T12:37:24;-22191.78;;;39.09;20.75
7337;BME280;54510;42.016;23.098;2023-07-24T12:39:49;-22197.47;;;39.31;20.62
7337;BME280;54510;42.016;23.098;2023-07-24T12:42:15;-22200.16;;;39.41;20.79
7337;BME280;54510;42.016;23.098;2023-07-24T12:44:42;-22205.34;;;39.61;20.81
7337;BME280;54510;42.016;23.098;2023-07-24T12:47:08;-22207.19;;;39.68;20.33
7337;BME280;54510;42.016;23.098;2023-07-24T12:49:34;-22213.03;;;39.90;20.50
7337;BME280;54510;42.016;23.098;2023-07-24T12:52:00;-22205.47;;;39.61;21.01